Airport View

Enter AWOS ICAO identifier for current METAR.

ex. KFNL

K4A6 171315Z AUTO 04003KT 10SM CLR 01/01 A3011 RMK AO2

17 Nov 2019 13:15

Frequency: 120.125

Phone: (256) 259-1148

Other Area AWOS: K4A9 - KMDQ - KBGF - K8A0

TAF KHSV 171142Z 1712/1812 VRB03KT P6SM SKC FM171800 22005KT P6SM SCT250 FM180300 26003KT P6SM BKN100